createdAt,value
2018-06-08T00:00:35.241Z,0
2018-06-08T00:01:38.129Z,0
2018-06-08T00:02:39.433Z,0
2018-06-08T00:03:42.115Z,0
2018-06-08T00:04:43.499Z,0
2018-06-08T00:05:44.889Z,0
2018-06-08T00:06:46.283Z,0
2018-06-08T00:07:47.665Z,0
2018-06-08T00:08:49.717Z,0
2018-06-08T00:09:51.097Z,0
2018-06-08T00:10:52.491Z,0
2018-06-08T00:11:54.732Z,0
2018-06-08T00:12:56.123Z,0
2018-06-08T00:13:57.529Z,0
2018-06-08T00:14:58.917Z,0
2018-06-08T00:16:01.628Z,0
2018-06-08T00:17:03.199Z,0
2018-06-08T00:18:05.406Z,0
2018-06-08T00:19:06.797Z,0
2018-06-08T00:20:08.182Z,0
2018-06-08T00:21:09.574Z,0
2018-06-08T00:22:11.485Z,0
2018-06-08T00:23:12.872Z,0
2018-06-08T00:24:14.268Z,0
2018-06-08T00:25:15.642Z,0
2018-06-08T00:26:19.708Z,0
2018-06-08T00:27:21.087Z,0
2018-06-08T00:28:25.792Z,0
2018-06-08T00:29:27.187Z,0
2018-06-08T00:30:28.575Z,0
2018-06-08T00:31:31.382Z,0
2018-06-08T00:32:32.780Z,0
2018-06-08T00:33:34.174Z,0
2018-06-08T00:34:36.754Z,0
2018-06-08T00:35:38.133Z,0
2018-06-08T00:36:40.135Z,0
2018-06-08T00:37:40.866Z,0
2018-06-08T00:38:42.259Z,0
2018-06-08T00:39:43.645Z,0
2018-06-08T00:40:45.046Z,0
2018-06-08T00:41:47.236Z,0
2018-06-08T00:42:50.725Z,0
2018-06-08T00:43:52.786Z,0
2018-06-08T00:44:55.140Z,0
2018-06-08T00:45:56.140Z,0
2018-06-08T00:46:56.849Z,0
2018-06-08T00:47:58.239Z,0
2018-06-08T00:48:59.622Z,0
2018-06-08T00:50:01.552Z,0
2018-06-08T00:51:02.890Z,0
2018-06-08T00:52:04.286Z,0
2018-06-08T00:53:06.220Z,0
2018-06-08T00:54:07.598Z,0
2018-06-08T00:55:08.987Z,0
2018-06-08T00:56:10.372Z,0
2018-06-08T00:57:12.261Z,0
2018-06-08T00:58:14.268Z,0
2018-06-08T00:59:15.654Z,0
2018-06-08T01:00:17.917Z,0
2018-06-08T01:01:19.315Z,0
2018-06-08T01:02:20.703Z,0
2018-06-08T01:03:22.091Z,0
2018-06-08T01:04:24.823Z,0
2018-06-08T01:05:26.210Z,0
2018-06-08T01:06:27.604Z,0
2018-06-08T01:07:28.984Z,0
2018-06-08T01:08:30.377Z,0
2018-06-08T01:09:31.760Z,0
2018-06-08T01:10:34.048Z,0
2018-06-08T01:11:35.440Z,0
2018-06-08T01:12:36.832Z,0
2018-06-08T01:13:38.222Z,0
2018-06-08T01:14:39.607Z,0
2018-06-08T01:15:40.992Z,0
2018-06-08T01:16:43.109Z,0
2018-06-08T01:17:45.375Z,0
2018-06-08T01:18:46.761Z,0
2018-06-08T01:19:48.142Z,0
2018-06-08T01:20:49.526Z,0
2018-06-08T01:21:53.154Z,0
2018-06-08T01:22:53.858Z,0
2018-06-08T01:23:56.015Z,0
2018-06-08T01:24:57.396Z,0
2018-06-08T01:25:58.781Z,0
2018-06-08T01:27:00.170Z,0
2018-06-08T01:28:02.437Z,0
2018-06-08T01:29:03.831Z,0
2018-06-08T01:30:05.221Z,0
2018-06-08T01:31:06.596Z,0
2018-06-08T01:32:07.997Z,0
2018-06-08T01:33:09.375Z,0
2018-06-08T01:34:10.759Z,0
2018-06-08T01:35:12.789Z,0
2018-06-08T01:36:15.370Z,0
2018-06-08T01:37:16.757Z,0
2018-06-08T01:38:19.078Z,0
2018-06-08T01:39:21.299Z,0
2018-06-08T01:40:22.713Z,0
2018-06-08T01:41:24.123Z,0
2018-06-08T01:42:27.955Z,0
2018-06-08T01:43:29.332Z,0
2018-06-08T01:44:30.724Z,0
2018-06-08T01:45:32.118Z,0
2018-06-08T01:46:33.502Z,0
2018-06-08T01:47:34.892Z,0
2018-06-08T01:48:36.278Z,0
2018-06-08T01:49:38.652Z,0
2018-06-08T01:50:40.047Z,0
2018-06-08T01:51:41.426Z,0
2018-06-08T01:52:42.823Z,0
2018-06-08T01:53:44.224Z,0
2018-06-08T01:54:45.608Z,0
2018-06-08T01:55:46.998Z,0
2018-06-08T01:56:48.386Z,0
2018-06-08T01:57:49.778Z,0
2018-06-08T01:58:51.169Z,0
2018-06-08T01:59:52.550Z,0
2018-06-08T02:00:53.942Z,0
2018-06-08T02:01:55.939Z,0
2018-06-08T02:02:57.331Z,4
2018-06-08T02:03:58.722Z,4
2018-06-08T02:05:00.117Z,0
2018-06-08T02:06:02.591Z,0
2018-06-08T02:07:03.973Z,4
2018-06-08T02:08:05.357Z,4
2018-06-08T02:09:06.758Z,0
2018-06-08T02:10:08.144Z,4
2018-06-08T02:11:09.530Z,4
2018-06-08T02:12:10.918Z,4
2018-06-08T02:13:12.302Z,4
2018-06-08T02:14:13.686Z,4
2018-06-08T02:15:15.094Z,4
2018-06-08T02:16:16.482Z,4
2018-06-08T02:17:17.858Z,4
2018-06-08T02:18:19.248Z,8
2018-06-08T02:19:20.635Z,8
2018-06-08T02:20:22.031Z,8
2018-06-08T02:21:23.407Z,8
2018-06-08T02:22:24.794Z,8
2018-06-08T02:23:26.189Z,8
2018-06-08T02:24:27.632Z,12
2018-06-08T02:25:28.991Z,12
2018-06-08T02:26:30.374Z,16
2018-06-08T02:27:32.956Z,16
2018-06-08T02:28:34.345Z,20
2018-06-08T02:29:36.445Z,24
2018-06-08T02:30:37.834Z,20
2018-06-08T02:31:39.207Z,24
2018-06-08T02:32:40.598Z,28
2018-06-08T02:33:41.989Z,28
2018-06-08T02:34:43.386Z,32
2018-06-08T02:35:44.767Z,32
2018-06-08T02:36:46.150Z,36
2018-06-08T02:37:49.126Z,40
2018-06-08T02:38:51.251Z,44
2018-06-08T02:39:52.638Z,48
2018-06-08T02:40:54.030Z,52
2018-06-08T02:41:55.418Z,52
2018-06-08T02:42:56.817Z,56
2018-06-08T02:43:58.200Z,64
2018-06-08T02:45:00.285Z,64
2018-06-08T02:46:01.686Z,72
2018-06-08T02:47:03.063Z,76
2018-06-08T02:48:04.445Z,80
2018-06-08T02:49:05.831Z,84
2018-06-08T02:50:07.241Z,88
2018-06-08T02:51:08.635Z,96
2018-06-08T02:52:10.028Z,100
2018-06-08T02:53:11.431Z,108
2018-06-08T02:54:14.703Z,112
2018-06-08T02:55:16.977Z,116
2018-06-08T02:56:18.369Z,128
2018-06-08T02:57:20.939Z,132
2018-06-08T02:58:23.245Z,136
2018-06-08T02:59:24.640Z,144
2018-06-08T03:00:26.034Z,152
2018-06-08T03:01:27.415Z,160
2018-06-08T03:02:28.804Z,168
2018-06-08T03:03:30.199Z,180
2018-06-08T03:04:33.028Z,188
2018-06-08T03:05:34.424Z,200
2018-06-08T03:06:35.813Z,208
2018-06-08T03:07:37.201Z,216
2018-06-08T03:08:38.591Z,224
2018-06-08T03:09:39.985Z,232
2018-06-08T03:10:42.232Z,244
2018-06-08T03:11:44.425Z,256
2018-06-08T03:12:46.767Z,272
2018-06-08T03:13:48.164Z,284
2018-06-08T03:14:51.341Z,296
2018-06-08T03:15:52.731Z,312
2018-06-08T03:16:54.767Z,324
2018-06-08T03:17:56.151Z,340
2018-06-08T03:18:57.546Z,352
2018-06-08T03:19:58.933Z,368
2018-06-08T03:21:00.326Z,380
2018-06-08T03:22:01.706Z,388
2018-06-08T03:23:03.098Z,404
2018-06-08T03:24:04.494Z,416
2018-06-08T03:25:08.196Z,428
2018-06-08T03:26:08.902Z,448
2018-06-08T03:27:10.286Z,460
2018-06-08T03:28:13.819Z,480
2018-06-08T03:29:16.122Z,500
2018-06-08T03:30:18.206Z,524
2018-06-08T03:31:19.596Z,540
2018-06-08T03:32:20.976Z,556
2018-06-08T03:33:22.360Z,584
2018-06-08T03:34:24.240Z,596
2018-06-08T03:35:25.636Z,604
2018-06-08T03:36:27.013Z,604
2018-06-08T03:37:29.324Z,612
2018-06-08T03:38:31.617Z,648
2018-06-08T03:39:33.015Z,684
2018-06-08T03:40:35.387Z,708
2018-06-08T03:41:36.773Z,728
2018-06-08T03:42:38.163Z,752
2018-06-08T03:43:39.545Z,788
2018-06-08T03:44:41.703Z,816
2018-06-08T03:45:42.281Z,832
2018-06-08T03:46:44.585Z,844
2018-06-08T03:47:47.436Z,864
2018-06-08T03:48:49.335Z,896
2018-06-08T03:49:50.716Z,932
2018-06-08T03:50:52.095Z,968
2018-06-08T03:51:53.492Z,1004
2018-06-08T03:52:54.897Z,1052
2018-06-08T03:53:56.294Z,1080
2018-06-08T03:54:58.595Z,1120
2018-06-08T03:56:00.642Z,1184
2018-06-08T03:57:01.988Z,1232
2018-06-08T03:58:04.115Z,1276
2018-06-08T03:59:06.346Z,1304
2018-06-08T04:00:07.724Z,1344
2018-06-08T04:01:09.600Z,1392
2018-06-08T04:02:10.994Z,1456
2018-06-08T04:03:12.384Z,1504
2018-06-08T04:04:14.327Z,1552
2018-06-08T04:05:15.715Z,1764
2018-06-08T04:06:17.102Z,1908
2018-06-08T04:07:19.208Z,2052
2018-06-08T04:08:20.607Z,2192
2018-06-08T04:09:21.989Z,2424
2018-06-08T04:10:23.381Z,2640
2018-06-08T04:11:24.770Z,2956
2018-06-08T04:12:26.163Z,3172
2018-06-08T04:13:27.559Z,3264
2018-06-08T04:14:28.969Z,3284
2018-06-08T04:15:30.375Z,3292
2018-06-08T04:16:31.761Z,3076
2018-06-08T04:17:34.748Z,2904
2018-06-08T04:18:36.837Z,2864
2018-06-08T04:19:38.225Z,2864
2018-06-08T04:20:40.495Z,2936
2018-06-08T04:21:41.891Z,3136
2018-06-08T04:22:44.213Z,3232
2018-06-08T04:23:44.634Z,3176
2018-06-08T04:24:46.030Z,3056
2018-06-08T04:25:47.482Z,3016
2018-06-08T04:26:48.820Z,3188
2018-06-08T04:27:50.746Z,3296
2018-06-08T04:28:52.146Z,3404
2018-06-08T04:29:53.539Z,3520
2018-06-08T04:30:54.938Z,3636
2018-06-08T04:31:56.330Z,3888
2018-06-08T04:32:57.728Z,3772
2018-06-08T04:33:59.122Z,3412
2018-06-08T04:35:00.521Z,2976
2018-06-08T04:36:02.785Z,2728
2018-06-08T04:37:04.154Z,2720
2018-06-08T04:38:05.559Z,2768
2018-06-08T04:39:08.305Z,2840
2018-06-08T04:40:10.245Z,2944
2018-06-08T04:41:11.642Z,3424
2018-06-08T04:42:13.925Z,3868
2018-06-08T04:43:15.311Z,3824
2018-06-08T04:44:16.717Z,3416
2018-06-08T04:45:18.935Z,3736
2018-06-08T04:46:20.323Z,4204
2018-06-08T04:47:21.725Z,3704
2018-06-08T04:48:23.119Z,3236
2018-06-08T04:49:24.514Z,3244
2018-06-08T04:50:26.706Z,3288
2018-06-08T04:51:28.671Z,3336
2018-06-08T04:52:30.072Z,3384
2018-06-08T04:53:32.975Z,3512
2018-06-08T04:54:34.361Z,3668
2018-06-08T04:55:35.759Z,3776
2018-06-08T04:56:37.161Z,3776
2018-06-08T04:57:40.094Z,3748
2018-06-08T04:58:41.522Z,4544
2018-06-08T04:59:42.910Z,5596
2018-06-08T05:00:44.315Z,6732
2018-06-08T05:01:45.707Z,7620
2018-06-08T05:02:47.101Z,6780
2018-06-08T05:03:48.506Z,4892
2018-06-08T05:04:50.412Z,3928
2018-06-08T05:05:53.803Z,3896
2018-06-08T05:06:58.590Z,4020
2018-06-08T05:07:59.983Z,4184
2018-06-08T05:09:01.375Z,4344
2018-06-08T05:10:03.460Z,4504
2018-06-08T05:11:04.858Z,4816
2018-06-08T05:12:06.249Z,5016
2018-06-08T05:13:07.641Z,5096
2018-06-08T05:14:09.040Z,5064
2018-06-08T05:15:10.432Z,5180
2018-06-08T05:16:11.841Z,4992
2018-06-08T05:17:13.246Z,5212
2018-06-08T05:18:14.642Z,5260
2018-06-08T05:19:16.041Z,4840
2018-06-08T05:20:17.428Z,4716
2018-06-08T05:21:20.664Z,4680
2018-06-08T05:22:22.756Z,4684
2018-06-08T05:23:24.158Z,4616
2018-06-08T05:24:25.560Z,4588
2018-06-08T05:25:26.958Z,4520
2018-06-08T05:26:29.320Z,4352
2018-06-08T05:27:30.705Z,4200
2018-06-08T05:28:32.913Z,4220
2018-06-08T05:29:34.303Z,4144
2018-06-08T05:30:36.249Z,4056
2018-06-08T05:31:37.988Z,3988
2018-06-08T05:32:39.381Z,4008
2018-06-08T05:33:40.782Z,3980
2018-06-08T05:34:42.177Z,3968
2018-06-08T05:35:44.075Z,4052
2018-06-08T05:36:45.473Z,4180
2018-06-08T05:37:46.871Z,4260
2018-06-08T05:38:48.865Z,4300
2018-06-08T05:39:50.266Z,4416
2018-06-08T05:40:51.656Z,4384
2018-06-08T05:41:53.559Z,4484
2018-06-08T05:42:54.956Z,4692
2018-06-08T05:43:56.349Z,5004
2018-06-08T05:44:57.746Z,5160
2018-06-08T05:45:59.136Z,5120
2018-06-08T05:47:01.234Z,5372
2018-06-08T05:48:02.639Z,5560
2018-06-08T05:49:04.813Z,5712
2018-06-08T05:50:07.936Z,5796
2018-06-08T05:51:09.892Z,5972
2018-06-08T05:52:11.288Z,6044
2018-06-08T05:53:13.257Z,6156
2018-06-08T05:54:14.095Z,6224
2018-06-08T05:55:17.002Z,6256
2018-06-08T05:56:19.194Z,6428
2018-06-08T05:57:20.591Z,6600
2018-06-08T05:58:21.998Z,7012
2018-06-08T05:59:24.902Z,7484
2018-06-08T06:00:26.305Z,7960
2018-06-08T06:01:27.705Z,8316
2018-06-08T06:02:29.101Z,8400
2018-06-08T06:03:31.048Z,8280
2018-06-08T06:04:33.107Z,7952
2018-06-08T06:05:34.523Z,7764
2018-06-08T06:06:36.649Z,7792
2018-06-08T06:07:38.046Z,8296
2018-06-08T06:08:40.848Z,8320
2018-06-08T06:09:43.191Z,8060
2018-06-08T06:10:45.385Z,8464
2018-06-08T06:11:47.385Z,8600
2018-06-08T06:12:48.780Z,8584
2018-06-08T06:13:50.183Z,8732
2018-06-08T06:14:51.604Z,8524
2018-06-08T06:15:53.001Z,8532
2018-06-08T06:16:54.403Z,8824
2018-06-08T06:17:55.812Z,9096
2018-06-08T06:18:57.221Z,9184
2018-06-08T06:19:58.614Z,9084
2018-06-08T06:21:00.051Z,8964
2018-06-08T06:22:02.354Z,8736
2018-06-08T06:23:04.765Z,8620
2018-06-08T06:24:06.202Z,8872
2018-06-08T06:25:07.608Z,8740
2018-06-08T06:26:09.000Z,9016
2018-06-08T06:27:10.403Z,9328
2018-06-08T06:28:11.803Z,9420
2018-06-08T06:29:13.198Z,9336
2018-06-08T06:30:15.101Z,8976
2018-06-08T06:31:16.519Z,8564
2018-06-08T06:32:17.921Z,8448
2018-06-08T06:33:19.886Z,8404
2018-06-08T06:34:21.283Z,8468
2018-06-08T06:35:23.287Z,8744
2018-06-08T06:36:24.697Z,8924
2018-06-08T06:37:26.094Z,9600
2018-06-08T06:38:28.177Z,9340
2018-06-08T06:39:29.574Z,9040
2018-06-08T06:40:31.570Z,9220
2018-06-08T06:41:32.963Z,9328
2018-06-08T06:42:34.365Z,9192
2018-06-08T06:43:36.354Z,9588
2018-06-08T06:44:37.735Z,10128
2018-06-08T06:45:39.134Z,10308
2018-06-08T06:46:40.539Z,10100
2018-06-08T06:47:43.329Z,9632
2018-06-08T06:48:44.730Z,9592
2018-06-08T06:49:46.124Z,9928
2018-06-08T06:50:47.540Z,9096
2018-06-08T06:51:48.934Z,10032
2018-06-08T06:52:51.296Z,9668
2018-06-08T06:53:52.425Z,9344
2018-06-08T06:54:54.440Z,9380
2018-06-08T06:55:55.833Z,9068
2018-06-08T06:56:57.236Z,9124
2018-06-08T06:57:58.637Z,8368
2018-06-08T06:59:00.028Z,8388
2018-06-08T07:00:01.427Z,8840
2018-06-08T07:01:04.323Z,8844
2018-06-08T07:02:05.713Z,9580
2018-06-08T07:03:07.116Z,9764
2018-06-08T07:04:09.973Z,9020
2018-06-08T07:05:11.371Z,9268
2018-06-08T07:06:13.699Z,9364
2018-06-08T07:07:15.508Z,8396
2018-06-08T07:08:16.914Z,8236
2018-06-08T07:09:19.167Z,8388
2018-06-08T07:10:20.571Z,8204
2018-06-08T07:11:23.484Z,8788
2018-06-08T07:12:24.894Z,9708
2018-06-08T07:13:26.288Z,10048
2018-06-08T07:14:27.688Z,10204
2018-06-08T07:15:29.082Z,10172
2018-06-08T07:16:30.488Z,10072
2018-06-08T07:17:32.415Z,10108
2018-06-08T07:18:33.806Z,7628
2018-06-08T07:19:35.908Z,7548
2018-06-08T07:20:37.308Z,8660
2018-06-08T07:21:38.716Z,6580
2018-06-08T07:22:40.522Z,6572
2018-06-08T07:23:41.925Z,5952
2018-06-08T07:24:43.332Z,4464
2018-06-08T07:25:44.743Z,6200
2018-06-08T07:26:46.151Z,5044
2018-06-08T07:27:47.545Z,4220
2018-06-08T07:28:48.971Z,4356
2018-06-08T07:29:50.363Z,4672
2018-06-08T07:30:51.771Z,5460
2018-06-08T07:31:53.249Z,4704
2018-06-08T07:32:54.565Z,4728
2018-06-08T07:33:56.559Z,4224
2018-06-08T07:34:58.656Z,4368
2018-06-08T07:36:00.053Z,4252
2018-06-08T07:37:02.258Z,4620
2018-06-08T07:38:03.647Z,4192
2018-06-08T07:39:05.054Z,4324
2018-06-08T07:40:06.489Z,4200
2018-06-08T07:41:08.813Z,4216
2018-06-08T07:42:10.188Z,4128
2018-06-08T07:43:12.820Z,4200
2018-06-08T07:44:15.210Z,4220
2018-06-08T07:45:16.612Z,4108
2018-06-08T07:46:18.012Z,4096
2018-06-08T07:47:19.417Z,4096
2018-06-08T07:48:20.807Z,4092
2018-06-08T07:49:22.220Z,3792
2018-06-08T07:50:23.621Z,4024
2018-06-08T07:51:25.921Z,4020
2018-06-08T07:52:27.316Z,4020
2018-06-08T07:53:28.724Z,4012
2018-06-08T07:54:30.932Z,3780
2018-06-08T07:55:32.332Z,3904
2018-06-08T07:56:33.726Z,3900
2018-06-08T07:57:35.120Z,3896
2018-06-08T07:58:36.553Z,3864
2018-06-08T07:59:37.937Z,3812
2018-06-08T08:00:39.356Z,3796
2018-06-08T08:01:41.599Z,3736
2018-06-08T08:02:43.001Z,3752
2018-06-08T08:03:44.945Z,3720
2018-06-08T08:04:46.365Z,3708
2018-06-08T08:05:50.207Z,3728
2018-06-08T08:06:52.420Z,3688
2018-06-08T08:07:54.945Z,3660
2018-06-08T08:08:56.349Z,3608
2018-06-08T08:09:57.754Z,3676
2018-06-08T08:10:59.154Z,3640
2018-06-08T08:12:00.559Z,3524
2018-06-08T08:13:01.962Z,3556
2018-06-08T08:14:03.357Z,3548
2018-06-08T08:15:04.777Z,3456
2018-06-08T08:16:06.173Z,3464
2018-06-08T08:17:08.953Z,3420
2018-06-08T08:18:10.342Z,3368
2018-06-08T08:19:11.780Z,3368
2018-06-08T08:20:13.856Z,3348
2018-06-08T08:21:15.286Z,3328
2018-06-08T08:22:16.696Z,3540
2018-06-08T08:23:18.096Z,3304
2018-06-08T08:24:19.494Z,3288
2018-06-08T08:25:20.918Z,3296
2018-06-08T08:26:22.321Z,3268
2018-06-08T08:27:23.710Z,3268
2018-06-08T08:28:25.119Z,3208
2018-06-08T08:29:27.215Z,3192
2018-06-08T08:30:30.446Z,3224
2018-06-08T08:31:31.855Z,3168
2018-06-08T08:32:34.222Z,3156
2018-06-08T08:33:37.350Z,3156
2018-06-08T08:34:38.513Z,3132
2018-06-08T08:35:39.851Z,3128
2018-06-08T08:36:41.919Z,3124
2018-06-08T08:37:44.175Z,3096
2018-06-08T08:38:45.582Z,3068
2018-06-08T08:39:46.983Z,3056
2018-06-08T08:40:48.386Z,3060
2018-06-08T08:41:49.794Z,3032
2018-06-08T08:42:51.198Z,2904
2018-06-08T08:43:52.598Z,3008
2018-06-08T08:44:54.016Z,2996
2018-06-08T08:45:55.409Z,3000
2018-06-08T08:46:56.803Z,2932
2018-06-08T08:47:58.209Z,3004
2018-06-08T08:49:00.539Z,3000
2018-06-08T08:50:02.683Z,3000
2018-06-08T08:51:04.091Z,2984
2018-06-08T08:52:05.603Z,3004
2018-06-08T08:53:06.881Z,2992
2018-06-08T08:54:08.301Z,3000
2018-06-08T08:55:10.473Z,3020
2018-06-08T08:56:11.859Z,3000
2018-06-08T08:57:13.260Z,2996
2018-06-08T08:58:14.665Z,2980
2018-06-08T08:59:16.083Z,2972
2018-06-08T09:00:17.491Z,2968
2018-06-08T09:01:18.902Z,3004
2018-06-08T09:02:21.393Z,3028
2018-06-08T09:03:22.812Z,3056
2018-06-08T09:04:24.201Z,3024
2018-06-08T09:05:25.606Z,3032
2018-06-08T09:06:27.008Z,3052
2018-06-08T09:07:29.204Z,3080
2018-06-08T09:08:30.593Z,3144
2018-06-08T09:09:32.000Z,3248
2018-06-08T09:10:33.414Z,3348
2018-06-08T09:11:36.370Z,3540
2018-06-08T09:12:37.745Z,3520
2018-06-08T09:13:39.140Z,3360
2018-06-08T09:14:40.543Z,3516
2018-06-08T09:15:41.931Z,3576
2018-06-08T09:16:43.328Z,3504
2018-06-08T09:17:44.746Z,3532
2018-06-08T09:18:47.994Z,3688
2018-06-08T09:19:52.374Z,3712
2018-06-08T09:20:52.286Z,3792
2018-06-08T09:21:54.335Z,3860
2018-06-08T09:22:55.728Z,3788
2018-06-08T09:23:57.138Z,3632
2018-06-08T09:24:59.201Z,3668
2018-06-08T09:26:00.609Z,3528
2018-06-08T09:27:04.301Z,3600
2018-06-08T09:28:05.705Z,3460
2018-06-08T09:29:07.113Z,3316
2018-06-08T09:30:08.519Z,3272
2018-06-08T09:31:10.566Z,3120
2018-06-08T09:32:11.970Z,3180
2018-06-08T09:33:13.435Z,3120
2018-06-08T09:34:14.794Z,3076
2018-06-08T09:35:16.188Z,3084
2018-06-08T09:36:18.075Z,3060
2018-06-08T09:37:19.476Z,3136
2018-06-08T09:38:20.874Z,3204
2018-06-08T09:39:22.276Z,3136
2018-06-08T09:40:23.678Z,3044
2018-06-08T09:41:25.078Z,3052
2018-06-08T09:42:26.480Z,3028
2018-06-08T09:43:27.884Z,3040
2018-06-08T09:44:29.323Z,2956
2018-06-08T09:45:30.684Z,3028
2018-06-08T09:46:32.093Z,3004
2018-06-08T09:47:33.494Z,3048
2018-06-08T09:48:34.894Z,3012
2018-06-08T09:49:36.300Z,3064
2018-06-08T09:50:38.985Z,3064
2018-06-08T09:51:40.435Z,2940
2018-06-08T09:52:41.833Z,3004
2018-06-08T09:53:43.227Z,2976
2018-06-08T09:54:45.551Z,3028
2018-06-08T09:55:47.440Z,3076
2018-06-08T09:56:50.477Z,3044
2018-06-08T09:57:51.857Z,3024
2018-06-08T09:58:53.996Z,2968
2018-06-08T09:59:56.192Z,3100
2018-06-08T10:00:57.598Z,3120
2018-06-08T10:01:58.993Z,3104
2018-06-08T10:03:00.396Z,3100
2018-06-08T10:04:01.794Z,3108
2018-06-08T10:05:03.641Z,3068
2018-06-08T10:06:05.822Z,3124
2018-06-08T10:07:07.235Z,3144
2018-06-08T10:08:08.631Z,3160
2018-06-08T10:09:10.047Z,3136
2018-06-08T10:10:11.981Z,3168
2018-06-08T10:11:13.398Z,3144
2018-06-08T10:12:14.796Z,3148
2018-06-08T10:13:16.188Z,3140
2018-06-08T10:14:17.595Z,3016
2018-06-08T10:15:18.990Z,3092
2018-06-08T10:16:22.050Z,3088
2018-06-08T10:17:23.451Z,3096
2018-06-08T10:18:24.861Z,3092
2018-06-08T10:19:26.265Z,3080
2018-06-08T10:20:27.671Z,3072
2018-06-08T10:21:29.649Z,3080
2018-06-08T10:22:31.052Z,3084
2018-06-08T10:23:32.463Z,3072
2018-06-08T10:24:34.731Z,3044
2018-06-08T10:25:36.131Z,3036
2018-06-08T10:26:37.539Z,3028
2018-06-08T10:27:38.941Z,3064
2018-06-08T10:28:40.337Z,3032
2018-06-08T10:29:42.507Z,3052
2018-06-08T10:30:44.522Z,3084
2018-06-08T10:31:45.922Z,3144
2018-06-08T10:32:47.332Z,3136
2018-06-08T10:33:48.723Z,3200
2018-06-08T10:34:50.120Z,3176
2018-06-08T10:35:51.526Z,3204
2018-06-08T10:36:52.922Z,3116
2018-06-08T10:37:54.331Z,3136
2018-06-08T10:38:56.491Z,3104
2018-06-08T10:39:57.934Z,3096
2018-06-08T10:40:59.281Z,3100
2018-06-08T10:42:00.686Z,3120
2018-06-08T10:43:02.085Z,3108
2018-06-08T10:44:03.493Z,3172
2018-06-08T10:45:04.899Z,3152
2018-06-08T10:46:07.726Z,3148
2018-06-08T10:47:09.125Z,3120
2018-06-08T10:48:10.526Z,3124
2018-06-08T10:49:11.929Z,3104
2018-06-08T10:50:13.971Z,3116
2018-06-08T10:51:15.374Z,3128
2018-06-08T10:52:17.284Z,3116
2018-06-08T10:53:18.697Z,3156
2018-06-08T10:54:21.559Z,3176
2018-06-08T10:55:22.961Z,3184
2018-06-08T10:56:24.369Z,3216
2018-06-08T10:57:25.764Z,3292
2018-06-08T10:58:28.999Z,3148
2018-06-08T10:59:30.413Z,3132
2018-06-08T11:00:31.785Z,3180
2018-06-08T11:01:33.203Z,3228
2018-06-08T11:02:35.516Z,3272
2018-06-08T11:03:36.922Z,3236
2018-06-08T11:04:38.319Z,3288
2018-06-08T11:05:39.727Z,3280
2018-06-08T11:06:42.100Z,3316
2018-06-08T11:07:43.511Z,3332
2018-06-08T11:08:44.911Z,3492
2018-06-08T11:09:47.045Z,3428
2018-06-08T11:10:48.452Z,3424
2018-06-08T11:11:49.841Z,3444
2018-06-08T11:12:51.244Z,3416
2018-06-08T11:13:54.445Z,3472
2018-06-08T11:14:54.823Z,3528
2018-06-08T11:15:56.234Z,5088
2018-06-08T11:16:57.623Z,6772
2018-06-08T11:17:59.021Z,8432
2018-06-08T11:19:01.198Z,8892
2018-06-08T11:20:03.097Z,11600
2018-06-08T11:21:04.502Z,9112
2018-06-08T11:22:05.911Z,8944
2018-06-08T11:23:07.311Z,9896
2018-06-08T11:24:08.716Z,9180
2018-06-08T11:25:10.107Z,8712
2018-06-08T11:26:11.519Z,8224
2018-06-08T11:27:12.925Z,2704
2018-06-08T11:28:15.531Z,9016
2018-06-08T11:29:17.788Z,7488
2018-06-08T11:30:19.188Z,10920
2018-06-08T11:31:21.507Z,11344
2018-06-08T11:32:22.910Z,12300
2018-06-08T11:33:24.306Z,10064
2018-06-08T11:34:25.696Z,18592
2018-06-08T11:35:27.104Z,48544
2018-06-08T11:36:28.502Z,84288
2018-06-08T11:37:29.897Z,109088
2018-06-08T11:38:31.954Z,98880
2018-06-08T11:39:33.375Z,88928
2018-06-08T11:40:34.767Z,90304
2018-06-08T11:41:36.174Z,97856
2018-06-08T11:42:37.573Z,95712
2018-06-08T11:43:39.672Z,90912
2018-06-08T11:44:41.073Z,87744
2018-06-08T11:45:42.480Z,90432
2018-06-08T11:46:44.548Z,96992
2018-06-08T11:47:45.944Z,98240
2018-06-08T11:48:47.349Z,94816
2018-06-08T11:49:48.748Z,91424
2018-06-08T11:50:50.168Z,92384
2018-06-08T11:51:51.573Z,86688
2018-06-08T11:52:54.033Z,80640
2018-06-08T11:53:55.435Z,85888
2018-06-08T11:54:56.842Z,99584
2018-06-08T11:55:58.246Z,109792
2018-06-08T11:56:59.648Z,114784
2018-06-08T11:58:01.052Z,108224
2018-06-08T11:59:02.467Z,103552
2018-06-08T12:00:03.876Z,102816
2018-06-08T12:01:05.829Z,104032
2018-06-08T12:02:07.888Z,101184
2018-06-08T12:03:09.825Z,100576
2018-06-08T12:04:11.232Z,102656
2018-06-08T12:05:13.543Z,105344
2018-06-08T12:06:14.953Z,108800
2018-06-08T12:07:16.365Z,111136
2018-06-08T12:08:17.784Z,107104
2018-06-08T12:09:19.960Z,106176
2018-06-08T12:10:21.383Z,100896
2018-06-08T12:11:22.779Z,91328
2018-06-08T12:12:24.983Z,78944
2018-06-08T12:13:26.355Z,68768
2018-06-08T12:14:28.207Z,61408
2018-06-08T12:15:30.120Z,62848
2018-06-08T12:16:32.067Z,69536
2018-06-08T12:17:34.161Z,64416
2018-06-08T12:18:35.577Z,30432
2018-06-08T12:19:36.980Z,35008
2018-06-08T12:20:38.371Z,68448
2018-06-08T12:21:39.780Z,73952
2018-06-08T12:22:41.196Z,69600
2018-06-08T12:23:42.594Z,55520
2018-06-08T12:24:44.006Z,29824
2018-06-08T12:25:45.406Z,29408
2018-06-08T12:26:48.046Z,75712
2018-06-08T12:27:50.395Z,79584
2018-06-08T12:28:51.806Z,82624
2018-06-08T12:29:54.399Z,90176
2018-06-08T12:30:55.809Z,97632
2018-06-08T12:31:57.215Z,95264
2018-06-08T12:32:58.628Z,89920
2018-06-08T12:34:00.906Z,83744
2018-06-08T12:35:03.699Z,80160
2018-06-08T12:36:06.588Z,85568
2018-06-08T12:37:08.493Z,80896
2018-06-08T12:38:09.339Z,36832
2018-06-08T12:39:10.741Z,3896
2018-06-08T12:40:12.141Z,3376
2018-06-08T12:41:14.475Z,3216
2018-06-08T12:42:15.873Z,3144
2018-06-08T12:43:18.028Z,3072
2018-06-08T12:44:19.444Z,3040
2018-06-08T12:45:21.501Z,3008
2018-06-08T12:46:22.205Z,2980
2018-06-08T12:47:23.594Z,2960
2018-06-08T12:48:27.140Z,2948
2018-06-08T12:49:29.242Z,3032
2018-06-08T12:50:30.646Z,2992
2018-06-08T12:51:32.051Z,3020
2018-06-08T12:52:33.444Z,3020
2018-06-08T12:53:35.503Z,3084
2018-06-08T12:54:38.122Z,3252
2018-06-08T12:55:39.565Z,19712
2018-06-08T12:56:41.750Z,58848
2018-06-08T12:57:43.651Z,45120
2018-06-08T12:58:45.048Z,8244
2018-06-08T12:59:46.449Z,2940
2018-06-08T13:00:47.847Z,2884
2018-06-08T13:01:49.246Z,2840
2018-06-08T13:02:50.641Z,2796
2018-06-08T13:03:52.047Z,2768
2018-06-08T13:04:54.016Z,2736
2018-06-08T13:05:54.826Z,2732
2018-06-08T13:06:57.727Z,2704
2018-06-08T13:07:59.127Z,2644
2018-06-08T13:09:01.164Z,2588
2018-06-08T13:10:02.566Z,2564
2018-06-08T13:11:04.617Z,2560
2018-06-08T13:12:06.027Z,2660
2018-06-08T13:13:07.422Z,2624
2018-06-08T13:14:09.368Z,2588
2018-06-08T13:15:10.776Z,2548
2018-06-08T13:16:12.174Z,2484
2018-06-08T13:17:16.750Z,2472
2018-06-08T13:18:18.149Z,2416
2018-06-08T13:19:20.242Z,2304
2018-06-08T13:20:23.103Z,2264
2018-06-08T13:21:24.492Z,2256
2018-06-08T13:22:25.898Z,2232
2018-06-08T13:23:27.292Z,2208
2018-06-08T13:24:28.696Z,2128
2018-06-08T13:25:30.972Z,2092
2018-06-08T13:26:32.377Z,2104
2018-06-08T13:27:34.484Z,2096
2018-06-08T13:28:35.885Z,2088
2018-06-08T13:29:37.283Z,2068
2018-06-08T13:30:38.682Z,2052
2018-06-08T13:31:40.079Z,2036
2018-06-08T13:32:43.107Z,2024
2018-06-08T13:33:45.150Z,2020
2018-06-08T13:34:46.544Z,2004
2018-06-08T13:35:47.945Z,1992
2018-06-08T13:36:49.343Z,1972
2018-06-08T13:37:51.726Z,1944
2018-06-08T13:38:53.128Z,1976
2018-06-08T13:39:54.528Z,1960
2018-06-08T13:40:55.931Z,1948
2018-06-08T13:41:57.329Z,1924
2018-06-08T13:42:59.559Z,1928
2018-06-08T13:44:00.974Z,1872
2018-06-08T13:45:02.360Z,1860
2018-06-08T13:46:03.766Z,1848
2018-06-08T13:47:05.181Z,1820
2018-06-08T13:48:06.576Z,1764
2018-06-08T13:49:08.924Z,1740
2018-06-08T13:50:10.334Z,1756
2018-06-08T13:51:11.731Z,1748
2018-06-08T13:52:13.780Z,1736
2018-06-08T13:53:15.180Z,1744
2018-06-08T13:54:17.170Z,1712
2018-06-08T13:55:19.066Z,1684
2018-06-08T13:56:20.457Z,1704